Magnolia — WDB7135 — position and weather

sailwx.info

Track history (hours):
 
Tides and Currents Weather Stations Pressure Air Temp Water Temp Dewpoint Dewpoint Depression Visibility Wind Speed Wind Dir Waves Ship Positions

Magnolia

Owner: Magnolia Marine Transport Co, Vicksburg, MS. More information available from US FCC via Universal Licensing System and Coast Guard Vessel Documentation Center.

Last reported at 2016-May-10 01:33 UTC. Time now 2016-May-25 20:50 UTC.
Position N 32°28' W 091°06'.
Warning: this ship's position is 15 days out of date.

Length 215 m.

MMSI: 366936960.

Date/timePositionNaut miles runAvg speedWind from/ knotsBaromVisibWave heightAir tempDewpointWater temp
2016-May-10 01:33N 32°28' W 091°06'5 5.0
2016-May-10 00:33N 32°26' W 091°01'5 4.6
2016-May-09 23:33N 32°21' W 090°60'5 5.1
2016-May-09 22:33N 32°20' W 090°54'1 0.6
2016-May-09 21:33N 32°21' W 090°53'0 0.0
2016-May-09 20:33N 32°21' W 090°53'0 0.0
2016-May-09 19:33N 32°21' W 090°53'1 1.0
2016-May-09 18:33N 32°22' W 090°53'0 0.0
2016-May-09 17:33N 32°22' W 090°53'0 0.0
2016-May-09 16:33N 32°22' W 090°53'1 1.3
2016-May-09 15:33N 32°23' W 090°53'0 0.0
2016-May-09 14:33N 32°23' W 090°53'0 0.0
2016-May-09 13:33N 32°23' W 090°53'0 0.0
2016-May-09 12:33N 32°23' W 090°53'0 0.0
2016-May-09 11:33N 32°23' W 090°53'0 0.0
2016-May-09 10:33N 32°23' W 090°53'0 0.0
2016-May-09 09:33N 32°23' W 090°53'0 0.0
2016-May-09 08:33N 32°23' W 090°53'0 0.0
2016-May-09 07:33N 32°23' W 090°53'0 0.0
2016-May-09 06:33N 32°23' W 090°53'0 0.0
2016-May-09 05:33N 32°23' W 090°53'0 0.0
2016-May-09 04:33N 32°23' W 090°53'0 0.0
2016-May-09 03:34N 32°23' W 090°53'0 0.0
2016-May-09 02:33N 32°23' W 090°53'0 0.0
2016-May-09 01:33N 32°23' W 090°53'0 0.0
2016-May-09 00:33N 32°23' W 090°53'0 0.0
2016-May-08 23:33N 32°23' W 090°53'0 0.0
2016-May-08 22:33N 32°23' W 090°53'0 0.0
2016-May-08 21:33N 32°23' W 090°53'0 0.0
2016-May-08 20:33N 32°23' W 090°53'0 0.0
2016-May-08 19:33N 32°23' W 090°53'0 0.0
2016-May-08 18:33N 32°23' W 090°53'0 0.0
2016-May-08 17:33N 32°23' W 090°53'0 0.0
2016-May-08 16:33N 32°23' W 090°53'0 0.0
2016-May-08 15:32N 32°23' W 090°53'0 0.0
2016-May-08 14:26N 32°23' W 090°53'0 0.0
2016-May-08 13:32N 32°23' W 090°53'0 0.0
2016-May-08 12:33N 32°23' W 090°53'0 0.0
2016-May-08 11:33N 32°23' W 090°53'0 0.0
2016-May-08 10:33N 32°23' W 090°53'0 0.0
2016-May-08 09:33N 32°23' W 090°53'0 0.0
2016-May-08 08:33N 32°23' W 090°53'0 0.0
2016-May-08 07:33N 32°23' W 090°53'0 0.0
2016-May-08 06:12N 32°23' W 090°53'0 0.0
2016-May-08 05:33N 32°23' W 090°53'0 0.0
2016-May-08 04:33N 32°23' W 090°53'0 0.0
2016-May-08 03:33N 32°23' W 090°53'0 0.0
2016-May-08 02:33N 32°23' W 090°53'0 0.0
2016-May-08 01:33N 32°23' W 090°53'0 0.0
2016-May-08 00:29N 32°23' W 090°53'0 0.0
2016-May-07 23:33N 32°23' W 090°53'0 0.0
2016-May-07 22:33N 32°23' W 090°53'0 0.0
2016-May-07 21:33N 32°23' W 090°53'0 0.0
2016-May-07 20:33N 32°23' W 090°53'0 0.0
2016-May-07 19:33N 32°23' W 090°53'0 0.0
2016-May-07 18:33N 32°23' W 090°53'0 0.0
2016-May-07 17:33N 32°23' W 090°53'0 0.0
2016-May-07 16:33N 32°23' W 090°53'0 0.0
2016-May-07 15:33N 32°23' W 090°53'0 0.0
2016-May-07 14:33N 32°23' W 090°53'0 0.0
2016-May-07 13:33N 32°23' W 090°53'0 0.0
2016-May-07 12:33N 32°23' W 090°53'0 0.0
2016-May-07 11:33N 32°23' W 090°53'0 0.0
2016-May-07 10:33N 32°23' W 090°53'0 0.0
2016-May-07 09:33N 32°23' W 090°53'0 0.0
2016-May-07 08:33N 32°23' W 090°53'0 0.0
2016-May-07 07:33N 32°23' W 090°53'0 0.0
2016-May-07 06:33N 32°23' W 090°53'3 2.6
2016-May-07 05:33N 32°20' W 090°54'0 0.1
2016-May-07 04:33N 32°20' W 090°54'1 0.7
2016-May-07 03:33N 32°20' W 090°55'8 8.2
2016-May-07 02:33N 32°26' W 091°02'  
Track history (hours):
 
Tides and Currents Weather Stations Pressure Air Temp Water Temp Dewpoint Dewpoint Depression Visibility Wind Speed Wind Dir Waves Ship Positions

Magnolia

Owner: Magnolia Marine Transport Co, Vicksburg, MS. More information available from US FCC via Universal Licensing System and Coast Guard Vessel Documentation Center.

Last reported at 2016-May-10 01:33 UTC. Time now 2016-May-25 20:50 UTC.
Position N 32°28' W 091°06'.
Warning: this ship's position is 15 days out of date.

Length 215 m.

MMSI: 366936960.

Date/timePositionNaut miles runAvg speedWind from/ knotsBaromVisibWave heightAir tempDewpointWater temp
2016-May-10 01:33N 32°28' W 091°06'5 5.0
2016-May-10 00:33N 32°26' W 091°01'5 4.6
2016-May-09 23:33N 32°21' W 090°60'5 5.1
2016-May-09 22:33N 32°20' W 090°54'1 0.6
2016-May-09 21:33N 32°21' W 090°53'0 0.0
2016-May-09 20:33N 32°21' W 090°53'0 0.0
2016-May-09 19:33N 32°21' W 090°53'1 1.0
2016-May-09 18:33N 32°22' W 090°53'0 0.0
2016-May-09 17:33N 32°22' W 090°53'0 0.0
2016-May-09 16:33N 32°22' W 090°53'1 1.3
2016-May-09 15:33N 32°23' W 090°53'0 0.0
2016-May-09 14:33N 32°23' W 090°53'0 0.0
2016-May-09 13:33N 32°23' W 090°53'0 0.0
2016-May-09 12:33N 32°23' W 090°53'0 0.0
2016-May-09 11:33N 32°23' W 090°53'0 0.0
2016-May-09 10:33N 32°23' W 090°53'0 0.0
2016-May-09 09:33N 32°23' W 090°53'0 0.0
2016-May-09 08:33N 32°23' W 090°53'0 0.0
2016-May-09 07:33N 32°23' W 090°53'0 0.0
2016-May-09 06:33N 32°23' W 090°53'0 0.0
2016-May-09 05:33N 32°23' W 090°53'0 0.0
2016-May-09 04:33N 32°23' W 090°53'0 0.0
2016-May-09 03:34N 32°23' W 090°53'0 0.0
2016-May-09 02:33N 32°23' W 090°53'0 0.0
2016-May-09 01:33N 32°23' W 090°53'0 0.0
2016-May-09 00:33N 32°23' W 090°53'0 0.0
2016-May-08 23:33N 32°23' W 090°53'0 0.0
2016-May-08 22:33N 32°23' W 090°53'0 0.0
2016-May-08 21:33N 32°23' W 090°53'0 0.0
2016-May-08 20:33N 32°23' W 090°53'0 0.0
2016-May-08 19:33N 32°23' W 090°53'0 0.0
2016-May-08 18:33N 32°23' W 090°53'0 0.0
2016-May-08 17:33N 32°23' W 090°53'0 0.0
2016-May-08 16:33N 32°23' W 090°53'0 0.0
2016-May-08 15:32N 32°23' W 090°53'0 0.0
2016-May-08 14:26N 32°23' W 090°53'0 0.0
2016-May-08 13:32N 32°23' W 090°53'0 0.0
2016-May-08 12:33N 32°23' W 090°53'0 0.0
2016-May-08 11:33N 32°23' W 090°53'0 0.0
2016-May-08 10:33N 32°23' W 090°53'0 0.0
2016-May-08 09:33N 32°23' W 090°53'0 0.0
2016-May-08 08:33N 32°23' W 090°53'0 0.0
2016-May-08 07:33N 32°23' W 090°53'0 0.0
2016-May-08 06:12N 32°23' W 090°53'0 0.0
2016-May-08 05:33N 32°23' W 090°53'0 0.0
2016-May-08 04:33N 32°23' W 090°53'0 0.0
2016-May-08 03:33N 32°23' W 090°53'0 0.0
2016-May-08 02:33N 32°23' W 090°53'0 0.0
2016-May-08 01:33N 32°23' W 090°53'0 0.0
2016-May-08 00:29N 32°23' W 090°53'0 0.0
2016-May-07 23:33N 32°23' W 090°53'0 0.0
2016-May-07 22:33N 32°23' W 090°53'0 0.0
2016-May-07 21:33N 32°23' W 090°53'0 0.0
2016-May-07 20:33N 32°23' W 090°53'0 0.0
2016-May-07 19:33N 32°23' W 090°53'0 0.0
2016-May-07 18:33N 32°23' W 090°53'0 0.0
2016-May-07 17:33N 32°23' W 090°53'0 0.0
2016-May-07 16:33N 32°23' W 090°53'0 0.0
2016-May-07 15:33N 32°23' W 090°53'0 0.0
2016-May-07 14:33N 32°23' W 090°53'0 0.0
2016-May-07 13:33N 32°23' W 090°53'0 0.0
2016-May-07 12:33N 32°23' W 090°53'0 0.0
2016-May-07 11:33N 32°23' W 090°53'0 0.0
2016-May-07 10:33N 32°23' W 090°53'0 0.0
2016-May-07 09:33N 32°23' W 090°53'0 0.0
2016-May-07 08:33N 32°23' W 090°53'0 0.0
2016-May-07 07:33N 32°23' W 090°53'0 0.0
2016-May-07 06:33N 32°23' W 090°53'3 2.6
2016-May-07 05:33N 32°20' W 090°54'0 0.1
2016-May-07 04:33N 32°20' W 090°54'1 0.7
2016-May-07 03:33N 32°20' W 090°55'8 8.2
2016-May-07 02:33N 32°26' W 091°02'  

Dump ship's entire track history